sensor_id;sensor_type;location;lat;lon;timestamp;temperature;humidity
43099;DHT22;28715;51.988;6.020;2023-04-25T00:00:35;8.50;99.90
43099;DHT22;28715;51.988;6.020;2023-04-25T00:03:01;8.60;99.90
43099;DHT22;28715;51.988;6.020;2023-04-25T00:05:27;8.60;99.90
43099;DHT22;28715;51.988;6.020;2023-04-25T00:07:52;8.60;99.90
43099;DHT22;28715;51.988;6.020;2023-04-25T00:10:19;8.60;99.90
43099;DHT22;28715;51.988;6.020;2023-04-25T00:12:45;8.60;99.90
43099;DHT22;28715;51.988;6.020;2023-04-25T00:15:12;8.50;99.90
43099;DHT22;28715;51.988;6.020;2023-04-25T00:17:37;8.50;99.90
43099;DHT22;28715;51.988;6.020;2023-04-25T00:20:04;8.50;99.90
43099;DHT22;28715;51.988;6.020;2023-04-25T00:22:38;8.50;99.90
43099;DHT22;28715;51.988;6.020;2023-04-25T00:25:05;8.50;99.90
43099;DHT22;28715;51.988;6.020;2023-04-25T00:27:31;8.50;99.90
43099;DHT22;28715;51.988;6.020;2023-04-25T00:29:57;8.50;99.90
43099;DHT22;28715;51.988;6.020;2023-04-25T00:32:23;8.50;99.90
43099;DHT22;28715;51.988;6.020;2023-04-25T00:34:48;8.50;99.90
43099;DHT22;28715;51.988;6.020;2023-04-25T00:37:14;8.40;99.90
43099;DHT22;28715;51.988;6.020;2023-04-25T00:39:39;8.50;99.90
43099;DHT22;28715;51.988;6.020;2023-04-25T00:42:05;8.50;99.90
43099;DHT22;28715;51.988;6.020;2023-04-25T00:44:31;8.40;99.90
43099;DHT22;28715;51.988;6.020;2023-04-25T00:46:58;8.40;99.90
43099;DHT22;28715;51.988;6.020;2023-04-25T00:49:23;8.40;99.90
43099;DHT22;28715;51.988;6.020;2023-04-25T00:51:49;8.40;99.90
43099;DHT22;28715;51.988;6.020;2023-04-25T00:54:16;8.30;99.90
43099;DHT22;28715;51.988;6.020;2023-04-25T00:56:41;8.30;99.90
43099;DHT22;28715;51.988;6.020;2023-04-25T00:59:09;8.20;99.90
43099;DHT22;28715;51.988;6.020;2023-04-25T01:01:35;8.20;99.90
43099;DHT22;28715;51.988;6.020;2023-04-25T01:04:01;8.20;99.90
43099;DHT22;28715;51.988;6.020;2023-04-25T01:06:27;8.20;99.90
43099;DHT22;28715;51.988;6.020;2023-04-25T01:08:54;8.20;99.90
43099;DHT22;28715;51.988;6.020;2023-04-25T01:11:19;8.20;99.90
43099;DHT22;28715;51.988;6.020;2023-04-25T01:13:45;8.20;99.90
43099;DHT22;28715;51.988;6.020;2023-04-25T01:16:11;8.20;99.90
43099;DHT22;28715;51.988;6.020;2023-04-25T01:18:39;8.30;99.90
43099;DHT22;28715;51.988;6.020;2023-04-25T01:21:17;8.30;99.90
43099;DHT22;28715;51.988;6.020;2023-04-25T01:23:45;8.30;99.90
43099;DHT22;28715;51.988;6.020;2023-04-25T01:26:12;8.30;99.90
43099;DHT22;28715;51.988;6.020;2023-04-25T01:28:39;8.30;99.90
43099;DHT22;28715;51.988;6.020;2023-04-25T01:31:07;8.20;99.90
43099;DHT22;28715;51.988;6.020;2023-04-25T01:33:33;8.20;99.90
43099;DHT22;28715;51.988;6.020;2023-04-25T01:35:59;8.20;99.90
43099;DHT22;28715;51.988;6.020;2023-04-25T01:38:25;8.20;99.90
43099;DHT22;28715;51.988;6.020;2023-04-25T01:40:51;8.20;99.90
43099;DHT22;28715;51.988;6.020;2023-04-25T01:43:17;8.30;99.90
43099;DHT22;28715;51.988;6.020;2023-04-25T01:45:43;8.30;99.90
43099;DHT22;28715;51.988;6.020;2023-04-25T01:48:10;8.30;99.90
43099;DHT22;28715;51.988;6.020;2023-04-25T01:50:37;8.30;99.90
43099;DHT22;28715;51.988;6.020;2023-04-25T01:53:04;8.30;99.90
43099;DHT22;28715;51.988;6.020;2023-04-25T01:55:30;8.40;99.90
43099;DHT22;28715;51.988;6.020;2023-04-25T01:57:55;8.30;99.90
43099;DHT22;28715;51.988;6.020;2023-04-25T02:00:21;8.30;99.90
43099;DHT22;28715;51.988;6.020;2023-04-25T02:02:47;8.30;99.90
43099;DHT22;28715;51.988;6.020;2023-04-25T02:05:13;8.30;99.90
43099;DHT22;28715;51.988;6.020;2023-04-25T02:07:39;8.20;99.90
43099;DHT22;28715;51.988;6.020;2023-04-25T02:10:05;8.20;99.90
43099;DHT22;28715;51.988;6.020;2023-04-25T02:12:31;8.10;99.90
43099;DHT22;28715;51.988;6.020;2023-04-25T02:14:57;8.10;99.90
43099;DHT22;28715;51.988;6.020;2023-04-25T02:17:22;8.10;99.90
43099;DHT22;28715;51.988;6.020;2023-04-25T02:19:48;8.10;99.90
43099;DHT22;28715;51.988;6.020;2023-04-25T02:22:14;8.10;99.90
43099;DHT22;28715;51.988;6.020;2023-04-25T02:24:40;8.10;99.90
43099;DHT22;28715;51.988;6.020;2023-04-25T02:27:05;8.00;99.90
43099;DHT22;28715;51.988;6.020;2023-04-25T02:29:31;8.00;99.90
43099;DHT22;28715;51.988;6.020;2023-04-25T02:31:57;8.00;99.90
43099;DHT22;28715;51.988;6.020;2023-04-25T02:34:22;7.90;99.90
43099;DHT22;28715;51.988;6.020;2023-04-25T02:36:49;8.00;99.90
43099;DHT22;28715;51.988;6.020;2023-04-25T02:39:17;8.00;99.90
43099;DHT22;28715;51.988;6.020;2023-04-25T02:41:43;7.90;99.90
43099;DHT22;28715;51.988;6.020;2023-04-25T02:44:08;7.90;99.90
43099;DHT22;28715;51.988;6.020;2023-04-25T02:46:34;7.90;99.90
43099;DHT22;28715;51.988;6.020;2023-04-25T02:48:59;7.90;99.90
43099;DHT22;28715;51.988;6.020;2023-04-25T02:51:25;7.90;99.90
43099;DHT22;28715;51.988;6.020;2023-04-25T02:53:51;7.90;99.90
43099;DHT22;28715;51.988;6.020;2023-04-25T02:56:17;7.80;99.90
43099;DHT22;28715;51.988;6.020;2023-04-25T02:58:42;7.80;99.90
43099;DHT22;28715;51.988;6.020;2023-04-25T03:01:08;7.80;99.90
43099;DHT22;28715;51.988;6.020;2023-04-25T03:03:34;7.70;99.90
43099;DHT22;28715;51.988;6.020;2023-04-25T03:05:59;7.70;99.90
43099;DHT22;28715;51.988;6.020;2023-04-25T03:08:25;7.70;99.90
43099;DHT22;28715;51.988;6.020;2023-04-25T03:10:54;7.60;99.90
43099;DHT22;28715;51.988;6.020;2023-04-25T03:13:20;7.50;99.90
43099;DHT22;28715;51.988;6.020;2023-04-25T03:15:46;7.50;99.90
43099;DHT22;28715;51.988;6.020;2023-04-25T03:18:12;7.50;99.90
43099;DHT22;28715;51.988;6.020;2023-04-25T03:20:37;7.40;99.90
43099;DHT22;28715;51.988;6.020;2023-04-25T03:23:04;7.40;99.90
43099;DHT22;28715;51.988;6.020;2023-04-25T03:25:30;7.40;99.90
43099;DHT22;28715;51.988;6.020;2023-04-25T03:27:56;7.40;99.90
43099;DHT22;28715;51.988;6.020;2023-04-25T03:30:23;7.40;99.90
43099;DHT22;28715;51.988;6.020;2023-04-25T03:32:49;7.40;99.90
43099;DHT22;28715;51.988;6.020;2023-04-25T03:35:14;7.40;99.90
43099;DHT22;28715;51.988;6.020;2023-04-25T03:37:40;7.40;99.90
43099;DHT22;28715;51.988;6.020;2023-04-25T03:40:06;7.50;99.90
43099;DHT22;28715;51.988;6.020;2023-04-25T03:42:32;7.50;99.90
43099;DHT22;28715;51.988;6.020;2023-04-25T03:44:57;7.50;99.90
43099;DHT22;28715;51.988;6.020;2023-04-25T03:47:23;7.50;99.90
43099;DHT22;28715;51.988;6.020;2023-04-25T03:49:48;7.50;99.90
43099;DHT22;28715;51.988;6.020;2023-04-25T03:52:17;7.40;99.90
43099;DHT22;28715;51.988;6.020;2023-04-25T03:54:42;7.40;99.90
43099;DHT22;28715;51.988;6.020;2023-04-25T03:57:08;7.40;99.90
43099;DHT22;28715;51.988;6.020;2023-04-25T03:59:33;7.40;99.90
43099;DHT22;28715;51.988;6.020;2023-04-25T04:01:59;7.40;99.90
43099;DHT22;28715;51.988;6.020;2023-04-25T04:04:24;7.40;99.90
43099;DHT22;28715;51.988;6.020;2023-04-25T04:06:50;7.30;99.90
43099;DHT22;28715;51.988;6.020;2023-04-25T04:09:17;7.30;99.90
43099;DHT22;28715;51.988;6.020;2023-04-25T04:11:43;7.30;99.90
43099;DHT22;28715;51.988;6.020;2023-04-25T04:14:09;7.30;99.90
43099;DHT22;28715;51.988;6.020;2023-04-25T04:16:35;7.30;99.90
43099;DHT22;28715;51.988;6.020;2023-04-25T04:19:01;7.20;99.90
43099;DHT22;28715;51.988;6.020;2023-04-25T04:21:27;7.20;99.90
43099;DHT22;28715;51.988;6.020;2023-04-25T04:23:53;7.20;99.90
43099;DHT22;28715;51.988;6.020;2023-04-25T04:26:22;7.20;99.90
43099;DHT22;28715;51.988;6.020;2023-04-25T04:28:51;7.10;99.90
43099;DHT22;28715;51.988;6.020;2023-04-25T04:31:20;7.10;99.90
43099;DHT22;28715;51.988;6.020;2023-04-25T04:33:45;7.00;99.90
43099;DHT22;28715;51.988;6.020;2023-04-25T04:36:12;7.00;99.90
43099;DHT22;28715;51.988;6.020;2023-04-25T04:38:37;7.00;99.90
43099;DHT22;28715;51.988;6.020;2023-04-25T04:41:03;7.00;99.90
43099;DHT22;28715;51.988;6.020;2023-04-25T04:43:29;6.90;99.90
43099;DHT22;28715;51.988;6.020;2023-04-25T04:45:55;6.90;99.90
43099;DHT22;28715;51.988;6.020;2023-04-25T04:48:23;6.90;99.90
43099;DHT22;28715;51.988;6.020;2023-04-25T04:50:49;6.90;99.90
43099;DHT22;28715;51.988;6.020;2023-04-25T04:53:15;6.80;99.90
43099;DHT22;28715;51.988;6.020;2023-04-25T04:55:40;6.80;99.90
43099;DHT22;28715;51.988;6.020;2023-04-25T04:58:06;6.80;99.90
43099;DHT22;28715;51.988;6.020;2023-04-25T05:00:32;6.90;99.90
43099;DHT22;28715;51.988;6.020;2023-04-25T05:02:58;6.90;99.90
43099;DHT22;28715;51.988;6.020;2023-04-25T05:05:24;6.80;99.90
43099;DHT22;28715;51.988;6.020;2023-04-25T05:07:50;6.80;99.90
43099;DHT22;28715;51.988;6.020;2023-04-25T05:10:17;6.80;99.90
43099;DHT22;28715;51.988;6.020;2023-04-25T05:12:42;6.80;99.90
43099;DHT22;28715;51.988;6.020;2023-04-25T05:15:08;6.80;99.90
43099;DHT22;28715;51.988;6.020;2023-04-25T05:17:34;6.80;99.90
43099;DHT22;28715;51.988;6.020;2023-04-25T05:20:00;6.90;99.90
43099;DHT22;28715;51.988;6.020;2023-04-25T05:22:26;6.90;99.90
43099;DHT22;28715;51.988;6.020;2023-04-25T05:24:51;7.00;99.90
43099;DHT22;28715;51.988;6.020;2023-04-25T05:27:17;7.00;99.90
43099;DHT22;28715;51.988;6.020;2023-04-25T05:29:44;7.10;99.90
43099;DHT22;28715;51.988;6.020;2023-04-25T05:32:09;7.10;99.90
43099;DHT22;28715;51.988;6.020;2023-04-25T05:34:35;7.20;99.90
43099;DHT22;28715;51.988;6.020;2023-04-25T05:37:01;7.20;99.90
43099;DHT22;28715;51.988;6.020;2023-04-25T05:39:26;7.20;99.90
43099;DHT22;28715;51.988;6.020;2023-04-25T05:41:52;7.20;99.90
43099;DHT22;28715;51.988;6.020;2023-04-25T05:44:18;7.30;99.90
43099;DHT22;28715;51.988;6.020;2023-04-25T05:46:43;7.20;99.90
43099;DHT22;28715;51.988;6.020;2023-04-25T05:49:09;7.20;99.90
43099;DHT22;28715;51.988;6.020;2023-04-25T05:51:35;7.20;99.90
43099;DHT22;28715;51.988;6.020;2023-04-25T05:54:00;7.30;99.90
43099;DHT22;28715;51.988;6.020;2023-04-25T05:56:26;7.20;99.90
43099;DHT22;28715;51.988;6.020;2023-04-25T05:58:51;7.10;99.90
43099;DHT22;28715;51.988;6.020;2023-04-25T06:01:17;7.10;99.90
43099;DHT22;28715;51.988;6.020;2023-04-25T06:03:42;7.20;99.90
43099;DHT22;28715;51.988;6.020;2023-04-25T06:06:08;7.30;99.90
43099;DHT22;28715;51.988;6.020;2023-04-25T06:08:35;7.30;99.90
43099;DHT22;28715;51.988;6.020;2023-04-25T06:11:00;7.40;99.90
43099;DHT22;28715;51.988;6.020;2023-04-25T06:13:26;7.50;99.90
43099;DHT22;28715;51.988;6.020;2023-04-25T06:15:51;7.60;99.90
43099;DHT22;28715;51.988;6.020;2023-04-25T06:18:17;7.70;99.90
43099;DHT22;28715;51.988;6.020;2023-04-25T06:20:43;7.80;99.90
43099;DHT22;28715;51.988;6.020;2023-04-25T06:23:08;7.90;99.90
43099;DHT22;28715;51.988;6.020;2023-04-25T06:25:34;8.00;99.90
43099;DHT22;28715;51.988;6.020;2023-04-25T06:27:59;8.10;99.90
43099;DHT22;28715;51.988;6.020;2023-04-25T06:30:25;8.20;99.90
43099;DHT22;28715;51.988;6.020;2023-04-25T06:32:52;8.20;99.90
43099;DHT22;28715;51.988;6.020;2023-04-25T06:35:18;8.20;99.90
43099;DHT22;28715;51.988;6.020;2023-04-25T06:37:44;8.20;99.90
43099;DHT22;28715;51.988;6.020;2023-04-25T06:40:10;8.30;99.90
43099;DHT22;28715;51.988;6.020;2023-04-25T06:42:36;8.40;99.90
43099;DHT22;28715;51.988;6.020;2023-04-25T06:45:02;8.50;99.90
43099;DHT22;28715;51.988;6.020;2023-04-25T06:47:27;8.60;99.90
43099;DHT22;28715;51.988;6.020;2023-04-25T06:49:53;8.70;99.90
43099;DHT22;28715;51.988;6.020;2023-04-25T06:52:18;8.80;99.90
43099;DHT22;28715;51.988;6.020;2023-04-25T06:54:44;8.80;99.90
43099;DHT22;28715;51.988;6.020;2023-04-25T06:57:10;8.90;99.90
43099;DHT22;28715;51.988;6.020;2023-04-25T06:59:36;8.90;99.90
43099;DHT22;28715;51.988;6.020;2023-04-25T07:02:01;9.10;99.90
43099;DHT22;28715;51.988;6.020;2023-04-25T07:04:27;9.20;99.90
43099;DHT22;28715;51.988;6.020;2023-04-25T07:06:53;9.30;99.90
43099;DHT22;28715;51.988;6.020;2023-04-25T07:09:18;9.40;99.90
43099;DHT22;28715;51.988;6.020;2023-04-25T07:11:44;9.50;99.90
43099;DHT22;28715;51.988;6.020;2023-04-25T07:14:10;9.60;99.80
43099;DHT22;28715;51.988;6.020;2023-04-25T07:16:35;9.60;99.30
43099;DHT22;28715;51.988;6.020;2023-04-25T07:19:01;9.70;99.00
43099;DHT22;28715;51.988;6.020;2023-04-25T07:21:26;9.70;98.60
43099;DHT22;28715;51.988;6.020;2023-04-25T07:23:52;9.80;98.30
43099;DHT22;28715;51.988;6.020;2023-04-25T07:26:17;9.80;98.00
43099;DHT22;28715;51.988;6.020;2023-04-25T07:28:43;9.90;98.20
43099;DHT22;28715;51.988;6.020;2023-04-25T07:31:09;10.10;98.20
43099;DHT22;28715;51.988;6.020;2023-04-25T07:33:35;10.30;98.10
43099;DHT22;28715;51.988;6.020;2023-04-25T07:36:00;10.50;97.60
43099;DHT22;28715;51.988;6.020;2023-04-25T07:38:26;10.60;97.40
43099;DHT22;28715;51.988;6.020;2023-04-25T07:40:51;10.80;96.70
43099;DHT22;28715;51.988;6.020;2023-04-25T07:43:17;11.00;96.80
43099;DHT22;28715;51.988;6.020;2023-04-25T07:45:44;11.40;96.80
43099;DHT22;28715;51.988;6.020;2023-04-25T07:48:10;11.80;96.10
43099;DHT22;28715;51.988;6.020;2023-04-25T07:50:35;12.20;95.80
43099;DHT22;28715;51.988;6.020;2023-04-25T07:53:01;12.40;94.70
43099;DHT22;28715;51.988;6.020;2023-04-25T07:55:27;12.30;92.70
43099;DHT22;28715;51.988;6.020;2023-04-25T07:57:53;12.20;93.40
43099;DHT22;28715;51.988;6.020;2023-04-25T08:00:19;12.10;93.50
43099;DHT22;28715;51.988;6.020;2023-04-25T08:02:44;12.00;92.90
43099;DHT22;28715;51.988;6.020;2023-04-25T08:05:10;11.90;93.40
43099;DHT22;28715;51.988;6.020;2023-04-25T08:07:40;11.80;93.30
43099;DHT22;28715;51.988;6.020;2023-04-25T08:10:06;11.70;93.30
43099;DHT22;28715;51.988;6.020;2023-04-25T08:12:32;11.70;93.80
43099;DHT22;28715;51.988;6.020;2023-04-25T08:14:57;11.70;93.30
43099;DHT22;28715;51.988;6.020;2023-04-25T08:17:23;11.60;93.40
43099;DHT22;28715;51.988;6.020;2023-04-25T08:19:49;11.40;92.70
43099;DHT22;28715;51.988;6.020;2023-04-25T08:22:14;11.20;91.70
43099;DHT22;28715;51.988;6.020;2023-04-25T08:24:41;11.10;91.80
43099;DHT22;28715;51.988;6.020;2023-04-25T08:27:06;10.80;92.10
43099;DHT22;28715;51.988;6.020;2023-04-25T08:29:36;10.70;92.80
43099;DHT22;28715;51.988;6.020;2023-04-25T08:32:01;10.60;93.50
43099;DHT22;28715;51.988;6.020;2023-04-25T08:34:27;10.60;94.10
43099;DHT22;28715;51.988;6.020;2023-04-25T08:36:53;10.60;93.40
43099;DHT22;28715;51.988;6.020;2023-04-25T08:39:18;10.70;93.30
43099;DHT22;28715;51.988;6.020;2023-04-25T08:41:44;10.80;93.20
43099;DHT22;28715;51.988;6.020;2023-04-25T08:44:10;10.90;92.30
43099;DHT22;28715;51.988;6.020;2023-04-25T08:46:38;10.90;90.90
43099;DHT22;28715;51.988;6.020;2023-04-25T08:49:06;10.80;91.40
43099;DHT22;28715;51.988;6.020;2023-04-25T08:51:32;10.70;91.00
43099;DHT22;28715;51.988;6.020;2023-04-25T08:54:09;10.90;91.50
43099;DHT22;28715;51.988;6.020;2023-04-25T08:56:36;11.00;92.30
43099;DHT22;28715;51.988;6.020;2023-04-25T08:59:02;11.20;93.60
43099;DHT22;28715;51.988;6.020;2023-04-25T09:01:28;11.30;92.80
43099;DHT22;28715;51.988;6.020;2023-04-25T09:03:53;11.30;92.80
43099;DHT22;28715;51.988;6.020;2023-04-25T09:06:19;11.30;92.80
43099;DHT22;28715;51.988;6.020;2023-04-25T09:08:45;11.30;92.50
43099;DHT22;28715;51.988;6.020;2023-04-25T09:11:12;11.30;92.40
43099;DHT22;28715;51.988;6.020;2023-04-25T09:13:38;11.30;92.30
43099;DHT22;28715;51.988;6.020;2023-04-25T09:16:04;11.40;92.70
43099;DHT22;28715;51.988;6.020;2023-04-25T09:18:30;11.60;92.40
43099;DHT22;28715;51.988;6.020;2023-04-25T09:21:08;11.90;92.70
43099;DHT22;28715;51.988;6.020;2023-04-25T09:26:07;12.50;92.10
43099;DHT22;28715;51.988;6.020;2023-04-25T09:28:34;12.70;89.90
43099;DHT22;28715;51.988;6.020;2023-04-25T09:31:01;12.60;90.20
43099;DHT22;28715;51.988;6.020;2023-04-25T09:33:29;12.40;90.20
43099;DHT22;28715;51.988;6.020;2023-04-25T09:36:05;12.40;90.10
43099;DHT22;28715;51.988;6.020;2023-04-25T09:38:32;12.30;90.40
43099;DHT22;28715;51.988;6.020;2023-04-25T09:41:05;12.30;90.50
43099;DHT22;28715;51.988;6.020;2023-04-25T09:43:31;12.30;90.20
43099;DHT22;28715;51.988;6.020;2023-04-25T09:45:56;12.40;90.70
43099;DHT22;28715;51.988;6.020;2023-04-25T09:48:25;12.80;90.00
43099;DHT22;28715;51.988;6.020;2023-04-25T09:51:11;13.10;88.10
43099;DHT22;28715;51.988;6.020;2023-04-25T09:53:40;13.30;86.30
43099;DHT22;28715;51.988;6.020;2023-04-25T09:56:11;13.30;85.30
43099;DHT22;28715;51.988;6.020;2023-04-25T09:58:38;13.20;85.10
43099;DHT22;28715;51.988;6.020;2023-04-25T10:01:06;13.30;85.40
43099;DHT22;28715;51.988;6.020;2023-04-25T10:03:33;13.30;85.90
43099;DHT22;28715;51.988;6.020;2023-04-25T10:06:01;13.40;85.20
43099;DHT22;28715;51.988;6.020;2023-04-25T10:08:31;13.40;82.60
43099;DHT22;28715;51.988;6.020;2023-04-25T10:11:05;13.30;79.80
43099;DHT22;28715;51.988;6.020;2023-04-25T10:13:31;13.40;78.90
43099;DHT22;28715;51.988;6.020;2023-04-25T10:15:58;13.70;79.70
43099;DHT22;28715;51.988;6.020;2023-04-25T10:18:25;13.90;79.80
43099;DHT22;28715;51.988;6.020;2023-04-25T10:20:53;14.20;78.30
43099;DHT22;28715;51.988;6.020;2023-04-25T10:23:20;14.40;80.50
43099;DHT22;28715;51.988;6.020;2023-04-25T10:25:46;14.50;77.00
43099;DHT22;28715;51.988;6.020;2023-04-25T10:28:11;14.50;76.40
43099;DHT22;28715;51.988;6.020;2023-04-25T10:30:37;14.10;76.50
43099;DHT22;28715;51.988;6.020;2023-04-25T10:33:16;13.70;75.70
43099;DHT22;28715;51.988;6.020;2023-04-25T10:35:45;13.30;77.40
43099;DHT22;28715;51.988;6.020;2023-04-25T10:38:16;13.10;77.90
43099;DHT22;28715;51.988;6.020;2023-04-25T10:40:42;13.00;78.40
43099;DHT22;28715;51.988;6.020;2023-04-25T10:43:46;13.10;77.70
43099;DHT22;28715;51.988;6.020;2023-04-25T10:46:26;13.20;81.50
43099;DHT22;28715;51.988;6.020;2023-04-25T10:48:54;12.60;84.00
43099;DHT22;28715;51.988;6.020;2023-04-25T10:51:22;12.10;87.20
43099;DHT22;28715;51.988;6.020;2023-04-25T10:54:05;11.80;88.70
43099;DHT22;28715;51.988;6.020;2023-04-25T10:56:41;11.20;90.20
43099;DHT22;28715;51.988;6.020;2023-04-25T10:59:19;10.90;90.60
43099;DHT22;28715;51.988;6.020;2023-04-25T11:01:52;10.70;91.20
43099;DHT22;28715;51.988;6.020;2023-04-25T11:04:22;10.60;90.60
43099;DHT22;28715;51.988;6.020;2023-04-25T11:07:06;10.50;90.40
43099;DHT22;28715;51.988;6.020;2023-04-25T11:09:37;10.50;91.20
43099;DHT22;28715;51.988;6.020;2023-04-25T11:12:04;10.60;90.80
43099;DHT22;28715;51.988;6.020;2023-04-25T11:14:30;10.80;91.30
43099;DHT22;28715;51.988;6.020;2023-04-25T11:16:57;11.00;90.90
43099;DHT22;28715;51.988;6.020;2023-04-25T11:19:23;11.20;89.10
43099;DHT22;28715;51.988;6.020;2023-04-25T11:21:49;11.30;87.70
43099;DHT22;28715;51.988;6.020;2023-04-25T11:24:18;11.60;87.20
43099;DHT22;28715;51.988;6.020;2023-04-25T11:26:46;11.80;86.20
43099;DHT22;28715;51.988;6.020;2023-04-25T11:29:13;12.00;87.50
43099;DHT22;28715;51.988;6.020;2023-04-25T11:31:38;12.30;86.20
43099;DHT22;28715;51.988;6.020;2023-04-25T11:34:04;12.50;83.80
43099;DHT22;28715;51.988;6.020;2023-04-25T11:36:30;12.70;83.20
43099;DHT22;28715;51.988;6.020;2023-04-25T11:38:56;12.90;82.80
43099;DHT22;28715;51.988;6.020;2023-04-25T11:41:22;13.10;81.10
43099;DHT22;28715;51.988;6.020;2023-04-25T11:43:48;13.20;79.70
43099;DHT22;28715;51.988;6.020;2023-04-25T11:46:15;13.40;77.40
43099;DHT22;28715;51.988;6.020;2023-04-25T11:48:42;13.50;78.70
43099;DHT22;28715;51.988;6.020;2023-04-25T11:51:08;13.70;78.70
43099;DHT22;28715;51.988;6.020;2023-04-25T11:53:34;13.90;77.90
43099;DHT22;28715;51.988;6.020;2023-04-25T11:56:01;14.10;77.50
43099;DHT22;28715;51.988;6.020;2023-04-25T11:58:27;14.10;74.60
43099;DHT22;28715;51.988;6.020;2023-04-25T12:00:52;14.00;75.10
43099;DHT22;28715;51.988;6.020;2023-04-25T12:03:18;13.90;74.70
43099;DHT22;28715;51.988;6.020;2023-04-25T12:05:46;14.00;76.40
43099;DHT22;28715;51.988;6.020;2023-04-25T12:08:12;14.20;74.80
43099;DHT22;28715;51.988;6.020;2023-04-25T12:10:39;14.40;73.80
43099;DHT22;28715;51.988;6.020;2023-04-25T12:13:23;14.50;74.00
43099;DHT22;28715;51.988;6.020;2023-04-25T12:15:49;14.60;74.40
43099;DHT22;28715;51.988;6.020;2023-04-25T12:18:14;14.50;73.00
43099;DHT22;28715;51.988;6.020;2023-04-25T12:20:41;14.40;74.30
43099;DHT22;28715;51.988;6.020;2023-04-25T12:23:07;14.30;75.10
43099;DHT22;28715;51.988;6.020;2023-04-25T12:25:40;13.90;77.60
43099;DHT22;28715;51.988;6.020;2023-04-25T12:28:24;13.20;83.50
43099;DHT22;28715;51.988;6.020;2023-04-25T12:31:03;12.40;85.40
43099;DHT22;28715;51.988;6.020;2023-04-25T12:33:30;12.00;87.60
43099;DHT22;28715;51.988;6.020;2023-04-25T12:35:57;11.70;89.20
43099;DHT22;28715;51.988;6.020;2023-04-25T12:38:28;11.50;89.30
43099;DHT22;28715;51.988;6.020;2023-04-25T12:40:55;11.40;90.00
43099;DHT22;28715;51.988;6.020;2023-04-25T12:43:21;11.30;88.20
43099;DHT22;28715;51.988;6.020;2023-04-25T12:45:51;11.20;87.30
43099;DHT22;28715;51.988;6.020;2023-04-25T12:48:18;11.10;87.30
43099;DHT22;28715;51.988;6.020;2023-04-25T12:50:44;10.90;87.50
43099;DHT22;28715;51.988;6.020;2023-04-25T12:53:10;10.90;87.20
43099;DHT22;28715;51.988;6.020;2023-04-25T12:55:37;10.90;89.60
43099;DHT22;28715;51.988;6.020;2023-04-25T12:58:02;11.00;89.90
43099;DHT22;28715;51.988;6.020;2023-04-25T13:00:28;11.10;90.20
43099;DHT22;28715;51.988;6.020;2023-04-25T13:02:54;11.20;88.70
43099;DHT22;28715;51.988;6.020;2023-04-25T13:05:20;11.50;90.40
43099;DHT22;28715;51.988;6.020;2023-04-25T13:07:46;11.90;88.20
43099;DHT22;28715;51.988;6.020;2023-04-25T13:10:11;12.40;88.80
43099;DHT22;28715;51.988;6.020;2023-04-25T13:12:37;12.90;88.20
43099;DHT22;28715;51.988;6.020;2023-04-25T13:15:03;13.20;86.00
43099;DHT22;28715;51.988;6.020;2023-04-25T13:17:28;13.50;86.00
43099;DHT22;28715;51.988;6.020;2023-04-25T13:19:54;13.70;83.90
43099;DHT22;28715;51.988;6.020;2023-04-25T13:22:20;13.80;83.30
43099;DHT22;28715;51.988;6.020;2023-04-25T13:24:46;13.60;80.30
43099;DHT22;28715;51.988;6.020;2023-04-25T13:27:12;13.30;76.60
43099;DHT22;28715;51.988;6.020;2023-04-25T13:29:38;13.00;80.30
43099;DHT22;28715;51.988;6.020;2023-04-25T13:32:06;12.80;82.20
43099;DHT22;28715;51.988;6.020;2023-04-25T13:34:31;12.60;82.90
43099;DHT22;28715;51.988;6.020;2023-04-25T13:36:57;12.40;81.50
43099;DHT22;28715;51.988;6.020;2023-04-25T13:39:22;12.40;82.50
43099;DHT22;28715;51.988;6.020;2023-04-25T13:41:48;12.40;78.10
43099;DHT22;28715;51.988;6.020;2023-04-25T13:44:13;12.50;78.50
43099;DHT22;28715;51.988;6.020;2023-04-25T13:46:39;12.70;77.20
43099;DHT22;28715;51.988;6.020;2023-04-25T13:49:05;12.90;78.00
43099;DHT22;28715;51.988;6.020;2023-04-25T13:51:31;13.10;77.10
43099;DHT22;28715;51.988;6.020;2023-04-25T13:53:57;13.00;77.80
43099;DHT22;28715;51.988;6.020;2023-04-25T13:56:22;12.80;78.00
43099;DHT22;28715;51.988;6.020;2023-04-25T13:58:52;12.80;78.20
43099;DHT22;28715;51.988;6.020;2023-04-25T14:01:18;12.90;78.20
43099;DHT22;28715;51.988;6.020;2023-04-25T14:03:44;13.20;79.40
43099;DHT22;28715;51.988;6.020;2023-04-25T14:06:10;13.30;76.70
43099;DHT22;28715;51.988;6.020;2023-04-25T14:08:38;13.10;73.50
43099;DHT22;28715;51.988;6.020;2023-04-25T14:11:03;12.80;73.60
43099;DHT22;28715;51.988;6.020;2023-04-25T14:13:29;12.60;74.00
43099;DHT22;28715;51.988;6.020;2023-04-25T14:15:54;12.60;76.70
43099;DHT22;28715;51.988;6.020;2023-04-25T14:18:20;12.70;77.00
43099;DHT22;28715;51.988;6.020;2023-04-25T14:20:46;12.90;75.00
43099;DHT22;28715;51.988;6.020;2023-04-25T14:23:12;13.10;74.90
43099;DHT22;28715;51.988;6.020;2023-04-25T14:25:37;13.30;75.60
43099;DHT22;28715;51.988;6.020;2023-04-25T14:28:03;13.20;74.40
43099;DHT22;28715;51.988;6.020;2023-04-25T14:30:29;12.90;72.40
43099;DHT22;28715;51.988;6.020;2023-04-25T14:32:54;12.60;74.90
43099;DHT22;28715;51.988;6.020;2023-04-25T14:35:20;12.40;78.10
43099;DHT22;28715;51.988;6.020;2023-04-25T14:37:46;12.30;77.90
43099;DHT22;28715;51.988;6.020;2023-04-25T14:40:12;12.20;77.20
43099;DHT22;28715;51.988;6.020;2023-04-25T14:42:40;12.00;76.40
43099;DHT22;28715;51.988;6.020;2023-04-25T14:45:07;11.80;75.80
43099;DHT22;28715;51.988;6.020;2023-04-25T14:47:33;11.70;77.70
43099;DHT22;28715;51.988;6.020;2023-04-25T14:49:58;11.90;75.20
43099;DHT22;28715;51.988;6.020;2023-04-25T14:52:24;12.10;75.10
43099;DHT22;28715;51.988;6.020;2023-04-25T14:54:51;12.20;75.00
43099;DHT22;28715;51.988;6.020;2023-04-25T14:57:17;12.40;75.60
43099;DHT22;28715;51.988;6.020;2023-04-25T14:59:42;12.50;73.20
43099;DHT22;28715;51.988;6.020;2023-04-25T15:02:08;12.50;73.40
43099;DHT22;28715;51.988;6.020;2023-04-25T15:04:33;12.50;73.00
43099;DHT22;28715;51.988;6.020;2023-04-25T15:06:59;12.50;74.80
43099;DHT22;28715;51.988;6.020;2023-04-25T15:09:25;12.40;76.10
43099;DHT22;28715;51.988;6.020;2023-04-25T15:11:51;12.30;76.30
43099;DHT22;28715;51.988;6.020;2023-04-25T15:14:17;12.20;77.50
43099;DHT22;28715;51.988;6.020;2023-04-25T15:16:43;12.10;79.20
43099;DHT22;28715;51.988;6.020;2023-04-25T15:19:08;12.00;79.00
43099;DHT22;28715;51.988;6.020;2023-04-25T15:21:34;11.90;77.30
43099;DHT22;28715;51.988;6.020;2023-04-25T15:24:00;11.80;76.90
43099;DHT22;28715;51.988;6.020;2023-04-25T15:26:27;11.70;76.90
43099;DHT22;28715;51.988;6.020;2023-04-25T15:28:52;11.70;77.70
43099;DHT22;28715;51.988;6.020;2023-04-25T15:31:18;11.60;78.20
43099;DHT22;28715;51.988;6.020;2023-04-25T15:33:44;11.70;77.40
43099;DHT22;28715;51.988;6.020;2023-04-25T15:36:09;11.70;77.80